Airfield :
LOGIN :

Register | Disclaimer

   EN    FR    IT 

 










Legend :    VFR   Marginal VFR   IFR   Intensive IFR   Very Intensive IFR
Visi :
Ceiling :
>= 8 km
>= 3000ft
5 to 8 km
1000 to 3000 ft
1500m to 5 km
500 to 1000 ft
800 to 1500m
200 to 500 ft
< 800m
< 200 ft
Symbols :   Thunderstorms  Fog  Heavy snow  Heavy precipitations  Wind > 20 kt
SIGMETs :     Misc.  Thunderstorms  Icing  Turbulence  Mountain Waves  Volcanic Ashes






- Airport Elevation : 268 ft
- IATA code : BFS


EGAA - Belfast Aldergrove

CURRENT METAR :
  • 230850Z AUTO 33007KT 310V030 9999 FEW016 15/11 Q1020

EXPIRED METARs :
  • 230820Z 32008KT 290V010 9999 SCT013 SCT020 15/11 Q1019
  • 230750Z 34007KT 310V020 9999 SCT010 SCT014 14/12 Q1019
  • 230720Z AUTO 35007KT 320V020 9999 FEW009 13/11 Q1019
  • 230650Z AUTO 34008KT 9999 BKN008 13/11 Q1018
  • 230620Z AUTO 32006KT 9999 BKN007 12/11 Q1018
  • 230550Z AUTO 33007KT 300V360 9999 OVC006 12/11 Q1018
  • 230520Z AUTO 34008KT 310V010 9999 BKN006 BKN011 12/11 Q1017
  • 230450Z AUTO 32004KT 280V010 9999 OVC007 12/11 Q1017
  • 230420Z AUTO 35006KT 9999 SCT006 11/11 Q1017

TAF TAF EGAA
Valid from the 23 at 06:00 until the 24 at 06:00 UTC


230457Z 2306/2406 34006KT 9999 FEW007
TEMPO 2306/2308 BKN014
PROB30
TEMPO 2306/2308 BKN007
PROB30
TEMPO 2404/2406 BKN012



MET'MAP, your aeronautical weather chart ! - Copyright ORBIFLY December 2007 - Disclaimer

ORBIFLY MET'MAP TEAM :

Programming & Development : Alexandra Zaïnal
Original concept : Baudouin d'Aumeries
Technical & hardware support : Manuel Goepfert
Assistance : Marc-Olivier Méhu




SOURCES & CREDITS :

   NOAA